sensor_id;sensor_type;location;lat;lon;timestamp;pressure;altitude;pressure_sealevel;temperature;humidity
72560;BME280;62987;52.382;9.752;2022-10-28T00:01:52;101280.31;;;17.53;71.92
72560;BME280;62987;52.382;9.752;2022-10-28T00:04:26;101291.06;;;17.53;72.14
72560;BME280;62987;52.382;9.752;2022-10-28T00:06:57;101285.69;;;17.53;71.96
72560;BME280;62987;52.382;9.752;2022-10-28T00:09:25;101294.19;;;17.61;71.66
72560;BME280;62987;52.382;9.752;2022-10-28T00:11:54;101314.13;;;17.57;71.93
72560;BME280;62987;52.382;9.752;2022-10-28T00:14:22;101312.19;;;17.75;71.41
72560;BME280;62987;52.382;9.752;2022-10-28T00:16:51;101302.06;;;17.78;71.10
72560;BME280;62987;52.382;9.752;2022-10-28T00:19:19;101296.38;;;17.83;71.22
72560;BME280;62987;52.382;9.752;2022-10-28T00:21:47;101302.66;;;17.69;71.31
72560;BME280;62987;52.382;9.752;2022-10-28T00:24:15;101311.41;;;17.87;70.85
72560;BME280;62987;52.382;9.752;2022-10-28T00:26:43;101302.56;;;17.85;71.00
72560;BME280;62987;52.382;9.752;2022-10-28T00:29:15;101289.78;;;17.88;70.31
72560;BME280;62987;52.382;9.752;2022-10-28T00:31:43;101319.19;;;18.06;69.89
72560;BME280;62987;52.382;9.752;2022-10-28T00:34:14;101321.66;;;18.09;69.75
72560;BME280;62987;52.382;9.752;2022-10-28T00:36:44;101326.97;;;18.10;70.11
72560;BME280;62987;52.382;9.752;2022-10-28T00:39:14;101330.59;;;18.09;69.73
72560;BME280;62987;52.382;9.752;2022-10-28T00:41:46;101330.53;;;18.11;69.86
72560;BME280;62987;52.382;9.752;2022-10-28T00:44:41;101342.06;;;18.13;69.66
72560;BME280;62987;52.382;9.752;2022-10-28T00:47:15;101349.28;;;18.12;69.88
72560;BME280;62987;52.382;9.752;2022-10-28T00:49:45;101341.84;;;18.16;69.76
72560;BME280;62987;52.382;9.752;2022-10-28T00:52:17;101345.50;;;18.29;69.49
72560;BME280;62987;52.382;9.752;2022-10-28T00:54:50;101338.19;;;18.31;69.27
72560;BME280;62987;52.382;9.752;2022-10-28T00:57:21;101332.44;;;18.23;69.54
72560;BME280;62987;52.382;9.752;2022-10-28T00:59:53;101331.16;;;18.28;69.46
72560;BME280;62987;52.382;9.752;2022-10-28T01:02:21;101331.47;;;18.24;69.70
72560;BME280;62987;52.382;9.752;2022-10-28T01:04:49;101331.06;;;18.30;69.58
72560;BME280;62987;52.382;9.752;2022-10-28T01:07:18;101315.13;;;18.27;69.37
72560;BME280;62987;52.382;9.752;2022-10-28T01:09:46;101324.81;;;18.29;69.60
72560;BME280;62987;52.382;9.752;2022-10-28T01:12:20;101313.00;;;18.32;69.30
72560;BME280;62987;52.382;9.752;2022-10-28T01:15:01;101310.50;;;18.29;69.56
72560;BME280;62987;52.382;9.752;2022-10-28T01:17:43;101299.94;;;18.26;69.70
72560;BME280;62987;52.382;9.752;2022-10-28T01:20:54;101293.22;;;18.05;70.11
72560;BME280;62987;52.382;9.752;2022-10-28T01:23:34;101304.75;;;18.21;69.85
72560;BME280;62987;52.382;9.752;2022-10-28T01:32:08;101297.94;;;18.01;71.06
72560;BME280;62987;52.382;9.752;2022-10-28T01:34:47;101282.34;;;18.06;70.68
72560;BME280;62987;52.382;9.752;2022-10-28T01:37:29;101282.84;;;18.13;70.62
72560;BME280;62987;52.382;9.752;2022-10-28T01:40:03;101277.84;;;18.07;70.88
72560;BME280;62987;52.382;9.752;2022-10-28T01:42:39;101265.44;;;17.90;70.83
72560;BME280;62987;52.382;9.752;2022-10-28T01:45:13;101263.91;;;18.00;70.81
72560;BME280;62987;52.382;9.752;2022-10-28T01:47:48;101249.50;;;18.01;70.89
72560;BME280;62987;52.382;9.752;2022-10-28T01:50:23;101246.59;;;18.04;70.88
72560;BME280;62987;52.382;9.752;2022-10-28T01:52:53;101253.63;;;18.07;70.55
72560;BME280;62987;52.382;9.752;2022-10-28T01:55:25;101258.53;;;18.00;71.13
72560;BME280;62987;52.382;9.752;2022-10-28T01:57:56;101279.75;;;17.90;71.16
72560;BME280;62987;52.382;9.752;2022-10-28T02:00:26;101278.25;;;17.86;71.42
72560;BME280;62987;52.382;9.752;2022-10-28T02:02:55;101265.25;;;17.93;71.10
72560;BME280;62987;52.382;9.752;2022-10-28T02:05:40;101270.34;;;17.97;71.00
72560;BME280;62987;52.382;9.752;2022-10-28T02:11:11;101253.63;;;17.92;70.98
72560;BME280;62987;52.382;9.752;2022-10-28T02:13:57;101250.25;;;17.89;71.08
72560;BME280;62987;52.382;9.752;2022-10-28T02:16:31;101242.09;;;17.90;70.99
72560;BME280;62987;52.382;9.752;2022-10-28T02:19:08;101240.94;;;17.94;71.09
72560;BME280;62987;52.382;9.752;2022-10-28T02:21:46;101252.66;;;17.93;70.81
72560;BME280;62987;52.382;9.752;2022-10-28T02:24:18;101242.09;;;17.90;70.84
72560;BME280;62987;52.382;9.752;2022-10-28T02:26:53;101237.38;;;17.94;70.77
72560;BME280;62987;52.382;9.752;2022-10-28T02:29:28;101229.41;;;17.78;71.11
72560;BME280;62987;52.382;9.752;2022-10-28T02:31:59;101241.03;;;17.79;71.17
72560;BME280;62987;52.382;9.752;2022-10-28T02:34:32;101238.66;;;17.88;70.97
72560;BME280;62987;52.382;9.752;2022-10-28T02:37:05;101226.50;;;17.95;70.59
72560;BME280;62987;52.382;9.752;2022-10-28T02:39:40;101225.06;;;17.90;70.72
72560;BME280;62987;52.382;9.752;2022-10-28T02:42:13;101205.66;;;17.85;70.42
72560;BME280;62987;52.382;9.752;2022-10-28T02:44:48;101219.00;;;18.01;70.14
72560;BME280;62987;52.382;9.752;2022-10-28T02:47:19;101221.88;;;17.97;69.99
72560;BME280;62987;52.382;9.752;2022-10-28T02:49:55;101216.94;;;18.18;69.42
72560;BME280;62987;52.382;9.752;2022-10-28T02:52:27;101218.97;;;18.15;69.33
72560;BME280;62987;52.382;9.752;2022-10-28T02:54:58;101224.66;;;18.10;69.38
72560;BME280;62987;52.382;9.752;2022-10-28T02:57:29;101222.50;;;18.15;69.18
72560;BME280;62987;52.382;9.752;2022-10-28T03:00:01;101231.66;;;18.13;69.31
72560;BME280;62987;52.382;9.752;2022-10-28T03:02:29;101215.72;;;17.95;69.77
72560;BME280;62987;52.382;9.752;2022-10-28T03:04:59;101220.16;;;17.96;69.96
72560;BME280;62987;52.382;9.752;2022-10-28T03:07:26;101204.22;;;17.93;69.98
72560;BME280;62987;52.382;9.752;2022-10-28T03:09:54;101199.94;;;18.04;69.61
72560;BME280;62987;52.382;9.752;2022-10-28T03:12:22;101196.28;;;18.05;69.69
72560;BME280;62987;52.382;9.752;2022-10-28T03:14:50;101196.53;;;17.87;70.22
72560;BME280;62987;52.382;9.752;2022-10-28T03:17:18;101179.22;;;17.91;69.79
72560;BME280;62987;52.382;9.752;2022-10-28T03:19:46;101179.03;;;17.94;69.79
72560;BME280;62987;52.382;9.752;2022-10-28T03:22:15;101190.19;;;17.88;70.06
72560;BME280;62987;52.382;9.752;2022-10-28T03:24:43;101196.69;;;17.98;69.74
72560;BME280;62987;52.382;9.752;2022-10-28T03:27:11;101198.28;;;17.88;70.04
72560;BME280;62987;52.382;9.752;2022-10-28T03:29:39;101193.72;;;17.89;70.00
72560;BME280;62987;52.382;9.752;2022-10-28T03:32:12;101186.34;;;17.92;69.93
72560;BME280;62987;52.382;9.752;2022-10-28T03:34:40;101184.03;;;17.86;69.98
72560;BME280;62987;52.382;9.752;2022-10-28T03:37:08;101193.06;;;17.85;69.94
72560;BME280;62987;52.382;9.752;2022-10-28T03:39:37;101174.81;;;17.76;70.08
72560;BME280;62987;52.382;9.752;2022-10-28T03:42:05;101185.78;;;17.87;69.89
72560;BME280;62987;52.382;9.752;2022-10-28T03:44:33;101186.34;;;17.92;69.64
72560;BME280;62987;52.382;9.752;2022-10-28T03:47:01;101192.50;;;17.80;69.79
72560;BME280;62987;52.382;9.752;2022-10-28T03:49:29;101191.25;;;17.86;69.92
72560;BME280;62987;52.382;9.752;2022-10-28T03:51:57;101187.53;;;17.74;69.91
72560;BME280;62987;52.382;9.752;2022-10-28T03:54:25;101152.53;;;17.74;69.73
72560;BME280;62987;52.382;9.752;2022-10-28T03:56:54;101180.66;;;17.83;69.74
72560;BME280;62987;52.382;9.752;2022-10-28T03:59:22;101180.09;;;17.78;69.77
72560;BME280;62987;52.382;9.752;2022-10-28T04:01:50;101181.75;;;17.80;69.63
72560;BME280;62987;52.382;9.752;2022-10-28T04:04:18;101176.44;;;17.93;69.32
72560;BME280;62987;52.382;9.752;2022-10-28T04:06:46;101168.03;;;17.97;69.36
72560;BME280;62987;52.382;9.752;2022-10-28T04:09:14;101180.72;;;17.95;69.36
72560;BME280;62987;52.382;9.752;2022-10-28T04:11:42;101177.84;;;17.98;68.89
72560;BME280;62987;52.382;9.752;2022-10-28T04:14:11;101172.31;;;17.87;69.43
72560;BME280;62987;52.382;9.752;2022-10-28T04:16:39;101181.34;;;17.86;69.31
72560;BME280;62987;52.382;9.752;2022-10-28T04:19:07;101170.19;;;17.92;69.41
72560;BME280;62987;52.382;9.752;2022-10-28T04:21:35;101171.13;;;17.91;69.41
72560;BME280;62987;52.382;9.752;2022-10-28T04:24:03;101166.31;;;17.96;69.14
72560;BME280;62987;52.382;9.752;2022-10-28T04:26:31;101158.38;;;17.95;68.89
72560;BME280;62987;52.382;9.752;2022-10-28T04:28:59;101157.97;;;18.01;68.87
72560;BME280;62987;52.382;9.752;2022-10-28T04:31:29;101165.09;;;17.88;69.23
72560;BME280;62987;52.382;9.752;2022-10-28T04:33:57;101138.44;;;17.97;69.14
72560;BME280;62987;52.382;9.752;2022-10-28T04:36:25;101153.03;;;18.08;69.13
72560;BME280;62987;52.382;9.752;2022-10-28T04:38:52;101150.94;;;17.98;69.17
72560;BME280;62987;52.382;9.752;2022-10-28T04:41:20;101146.09;;;18.04;68.81
72560;BME280;62987;52.382;9.752;2022-10-28T04:43:48;101150.34;;;18.08;68.89
72560;BME280;62987;52.382;9.752;2022-10-28T04:46:16;101139.84;;;18.03;68.49
72560;BME280;62987;52.382;9.752;2022-10-28T04:48:46;101154.34;;;18.15;68.21
72560;BME280;62987;52.382;9.752;2022-10-28T04:51:14;101145.88;;;18.21;68.31
72560;BME280;62987;52.382;9.752;2022-10-28T04:53:42;101143.63;;;18.27;68.07
72560;BME280;62987;52.382;9.752;2022-10-28T04:56:11;101129.59;;;18.22;67.89
72560;BME280;62987;52.382;9.752;2022-10-28T04:58:38;101140.34;;;18.22;67.70
72560;BME280;62987;52.382;9.752;2022-10-28T05:01:07;101132.19;;;18.24;67.58
72560;BME280;62987;52.382;9.752;2022-10-28T05:03:35;101121.63;;;18.21;67.63
72560;BME280;62987;52.382;9.752;2022-10-28T05:06:05;101115.16;;;18.23;67.72
72560;BME280;62987;52.382;9.752;2022-10-28T05:08:33;101119.44;;;18.13;68.04
72560;BME280;62987;52.382;9.752;2022-10-28T05:11:01;101116.50;;;18.04;68.23
72560;BME280;62987;52.382;9.752;2022-10-28T05:13:29;101110.25;;;18.03;68.37
72560;BME280;62987;52.382;9.752;2022-10-28T05:15:57;101102.06;;;18.05;68.24
72560;BME280;62987;52.382;9.752;2022-10-28T05:18:25;101098.06;;;17.97;68.29
72560;BME280;62987;52.382;9.752;2022-10-28T05:20:53;101110.16;;;18.05;68.33
72560;BME280;62987;52.382;9.752;2022-10-28T05:23:23;101118.09;;;17.93;68.57
72560;BME280;62987;52.382;9.752;2022-10-28T05:25:56;101115.75;;;18.02;68.55
72560;BME280;62987;52.382;9.752;2022-10-28T05:28:24;101115.38;;;17.93;68.89
72560;BME280;62987;52.382;9.752;2022-10-28T05:30:52;101107.34;;;17.79;69.17
72560;BME280;62987;52.382;9.752;2022-10-28T05:33:20;101114.38;;;17.82;69.10
72560;BME280;62987;52.382;9.752;2022-10-28T05:35:48;101102.75;;;17.81;69.35
72560;BME280;62987;52.382;9.752;2022-10-28T05:38:17;101114.88;;;17.74;69.44
72560;BME280;62987;52.382;9.752;2022-10-28T05:40:46;101112.19;;;17.74;69.55
72560;BME280;62987;52.382;9.752;2022-10-28T05:43:14;101114.31;;;17.69;69.85
72560;BME280;62987;52.382;9.752;2022-10-28T05:45:42;101110.06;;;17.65;69.89
72560;BME280;62987;52.382;9.752;2022-10-28T05:48:10;101109.47;;;17.60;70.09
72560;BME280;62987;52.382;9.752;2022-10-28T05:50:38;101102.13;;;17.49;70.67
72560;BME280;62987;52.382;9.752;2022-10-28T05:53:06;101097.78;;;17.47;70.69
72560;BME280;62987;52.382;9.752;2022-10-28T05:55:34;101092.41;;;17.47;70.45
72560;BME280;62987;52.382;9.752;2022-10-28T05:58:03;101097.97;;;17.44;70.59
72560;BME280;62987;52.382;9.752;2022-10-28T06:00:31;101092.59;;;17.44;70.59
72560;BME280;62987;52.382;9.752;2022-10-28T06:03:04;101103.06;;;17.48;70.54
72560;BME280;62987;52.382;9.752;2022-10-28T06:05:35;101099.53;;;17.48;70.54
72560;BME280;62987;52.382;9.752;2022-10-28T06:08:04;101097.22;;;17.56;70.30
72560;BME280;62987;52.382;9.752;2022-10-28T06:10:32;101100.84;;;17.55;70.28
72560;BME280;62987;52.382;9.752;2022-10-28T06:13:00;101101.81;;;17.68;69.78
72560;BME280;62987;52.382;9.752;2022-10-28T06:15:30;101075.47;;;17.59;69.70
72560;BME280;62987;52.382;9.752;2022-10-28T06:17:58;101098.81;;;17.73;69.56
72560;BME280;62987;52.382;9.752;2022-10-28T06:20:26;101093.03;;;17.79;69.42
72560;BME280;62987;52.382;9.752;2022-10-28T06:22:54;101089.78;;;17.74;69.31
72560;BME280;62987;52.382;9.752;2022-10-28T06:25:24;101101.00;;;17.80;69.14
72560;BME280;62987;52.382;9.752;2022-10-28T06:27:55;101106.19;;;17.83;68.91
72560;BME280;62987;52.382;9.752;2022-10-28T06:30:25;101102.53;;;17.84;69.02
72560;BME280;62987;52.382;9.752;2022-10-28T06:32:56;101104.72;;;17.92;68.91
72560;BME280;62987;52.382;9.752;2022-10-28T06:35:24;101102.47;;;17.98;68.63
72560;BME280;62987;52.382;9.752;2022-10-28T06:37:53;101105.59;;;17.92;68.95
72560;BME280;62987;52.382;9.752;2022-10-28T06:40:22;101117.25;;;18.06;68.41
72560;BME280;62987;52.382;9.752;2022-10-28T06:42:56;101122.78;;;18.17;67.84
72560;BME280;62987;52.382;9.752;2022-10-28T06:45:24;101109.59;;;18.26;67.23
72560;BME280;62987;52.382;9.752;2022-10-28T06:47:56;101119.09;;;18.45;67.06
72560;BME280;62987;52.382;9.752;2022-10-28T06:50:25;101131.66;;;18.58;66.71
72560;BME280;62987;52.382;9.752;2022-10-28T06:52:54;101133.19;;;18.62;66.47
72560;BME280;62987;52.382;9.752;2022-10-28T06:55:22;101129.50;;;18.63;66.21
72560;BME280;62987;52.382;9.752;2022-10-28T06:57:51;101133.44;;;18.85;65.45
72560;BME280;62987;52.382;9.752;2022-10-28T07:00:33;101143.34;;;18.97;65.46
72560;BME280;62987;52.382;9.752;2022-10-28T07:03:09;101140.53;;;18.73;66.10
72560;BME280;62987;52.382;9.752;2022-10-28T07:05:37;101139.00;;;18.69;65.90
72560;BME280;62987;52.382;9.752;2022-10-28T07:08:05;101151.53;;;18.83;65.57
72560;BME280;62987;52.382;9.752;2022-10-28T07:10:33;101141.28;;;18.88;65.22
72560;BME280;62987;52.382;9.752;2022-10-28T07:13:02;101154.78;;;18.88;65.41
72560;BME280;62987;52.382;9.752;2022-10-28T07:15:29;101153.91;;;19.00;65.25
72560;BME280;62987;52.382;9.752;2022-10-28T07:17:58;101164.94;;;18.97;65.23
72560;BME280;62987;52.382;9.752;2022-10-28T07:20:28;101165.88;;;18.96;65.31
72560;BME280;62987;52.382;9.752;2022-10-28T07:23:00;101168.69;;;19.07;64.70
72560;BME280;62987;52.382;9.752;2022-10-28T07:25:29;101174.66;;;19.12;64.78
72560;BME280;62987;52.382;9.752;2022-10-28T07:27:58;101167.19;;;19.28;64.08
72560;BME280;62987;52.382;9.752;2022-10-28T07:30:27;101161.00;;;19.39;64.13
72560;BME280;62987;52.382;9.752;2022-10-28T07:32:55;101148.19;;;19.42;63.82
72560;BME280;62987;52.382;9.752;2022-10-28T07:35:27;101152.22;;;19.49;63.70
72560;BME280;62987;52.382;9.752;2022-10-28T07:37:56;101149.38;;;19.51;63.48
72560;BME280;62987;52.382;9.752;2022-10-28T07:40:25;101143.88;;;19.52;63.37
72560;BME280;62987;52.382;9.752;2022-10-28T07:42:53;101149.16;;;19.54;63.17
72560;BME280;62987;52.382;9.752;2022-10-28T07:45:21;101147.19;;;19.69;63.00
72560;BME280;62987;52.382;9.752;2022-10-28T07:47:49;101130.31;;;19.78;62.77
72560;BME280;62987;52.382;9.752;2022-10-28T07:50:17;101155.53;;;20.02;61.46
72560;BME280;62987;52.382;9.752;2022-10-28T07:52:47;101156.25;;;20.41;60.41
72560;BME280;62987;52.382;9.752;2022-10-28T07:55:15;101161.84;;;20.61;60.55
72560;BME280;62987;52.382;9.752;2022-10-28T07:57:43;101161.56;;;20.88;58.83
72560;BME280;62987;52.382;9.752;2022-10-28T08:00:11;101165.09;;;21.35;57.33
72560;BME280;62987;52.382;9.752;2022-10-28T08:02:39;101154.75;;;21.96;55.51
72560;BME280;62987;52.382;9.752;2022-10-28T08:05:08;101163.16;;;22.56;53.77
72560;BME280;62987;52.382;9.752;2022-10-28T08:07:36;101161.63;;;23.46;50.71
72560;BME280;62987;52.382;9.752;2022-10-28T08:10:07;101166.06;;;22.76;52.31
72560;BME280;62987;52.382;9.752;2022-10-28T08:12:35;101156.34;;;23.66;50.20
72560;BME280;62987;52.382;9.752;2022-10-28T08:15:03;101158.78;;;25.05;46.07
72560;BME280;62987;52.382;9.752;2022-10-28T08:17:31;101155.47;;;25.48;45.44
72560;BME280;62987;52.382;9.752;2022-10-28T08:19:59;101160.19;;;25.93;44.05
72560;BME280;62987;52.382;9.752;2022-10-28T08:22:27;101157.94;;;26.69;41.87
72560;BME280;62987;52.382;9.752;2022-10-28T08:24:55;101163.53;;;25.59;44.66
72560;BME280;62987;52.382;9.752;2022-10-28T08:27:25;101157.06;;;25.04;46.07
72560;BME280;62987;52.382;9.752;2022-10-28T08:29:53;101148.63;;;24.97;46.03
72560;BME280;62987;52.382;9.752;2022-10-28T08:32:21;101156.06;;;24.38;47.32
72560;BME280;62987;52.382;9.752;2022-10-28T08:34:49;101158.91;;;23.46;49.38
72560;BME280;62987;52.382;9.752;2022-10-28T08:37:17;101159.53;;;23.20;50.87
72560;BME280;62987;52.382;9.752;2022-10-28T08:39:45;101161.41;;;22.66;51.98
72560;BME280;62987;52.382;9.752;2022-10-28T08:42:27;101162.69;;;22.51;52.99
72560;BME280;62987;52.382;9.752;2022-10-28T08:45:16;101157.69;;;22.79;52.41
72560;BME280;62987;52.382;9.752;2022-10-28T08:47:54;101154.34;;;22.75;52.36
72560;BME280;62987;52.382;9.752;2022-10-28T08:50:25;101165.22;;;22.64;52.79
72560;BME280;62987;52.382;9.752;2022-10-28T08:52:59;101167.16;;;22.09;54.56
72560;BME280;62987;52.382;9.752;2022-10-28T08:55:30;101167.06;;;21.88;55.26
72560;BME280;62987;52.382;9.752;2022-10-28T08:58:06;101155.22;;;21.89;55.36
72560;BME280;62987;52.382;9.752;2022-10-28T09:00:35;101170.50;;;21.90;54.94
72560;BME280;62987;52.382;9.752;2022-10-28T09:03:15;101149.03;;;22.21;53.99
72560;BME280;62987;52.382;9.752;2022-10-28T09:05:47;101155.53;;;23.24;51.51
72560;BME280;62987;52.382;9.752;2022-10-28T09:08:20;101149.19;;;23.74;49.81
72560;BME280;62987;52.382;9.752;2022-10-28T09:11:13;101143.03;;;24.22;48.10
72560;BME280;62987;52.382;9.752;2022-10-28T09:14:02;101109.19;;;23.46;49.74
72560;BME280;62987;52.382;9.752;2022-10-28T09:16:40;101144.97;;;24.01;49.19
72560;BME280;62987;52.382;9.752;2022-10-28T09:19:25;101118.72;;;24.20;47.89
72560;BME280;62987;52.382;9.752;2022-10-28T09:22:02;101142.09;;;25.27;45.92
72560;BME280;62987;52.382;9.752;2022-10-28T09:24:42;101141.00;;;25.11;46.17
72560;BME280;62987;52.382;9.752;2022-10-28T09:27:20;101146.75;;;24.88;45.92
72560;BME280;62987;52.382;9.752;2022-10-28T09:30:00;101143.34;;;25.79;44.35
72560;BME280;62987;52.382;9.752;2022-10-28T09:32:38;101140.38;;;25.73;43.69
72560;BME280;62987;52.382;9.752;2022-10-28T09:35:12;101133.09;;;26.80;41.94
72560;BME280;62987;52.382;9.752;2022-10-28T09:37:43;101135.13;;;26.78;41.53
72560;BME280;62987;52.382;9.752;2022-10-28T09:40:16;101144.97;;;26.71;41.76
72560;BME280;62987;52.382;9.752;2022-10-28T09:42:54;101133.56;;;28.53;37.76
72560;BME280;62987;52.382;9.752;2022-10-28T09:45:29;101135.81;;;29.69;35.13
72560;BME280;62987;52.382;9.752;2022-10-28T09:48:01;101138.34;;;29.87;34.37
72560;BME280;62987;52.382;9.752;2022-10-28T09:50:32;101132.88;;;30.18;34.20
72560;BME280;62987;52.382;9.752;2022-10-28T09:53:05;101138.41;;;30.10;34.33
72560;BME280;62987;52.382;9.752;2022-10-28T09:55:36;101137.00;;;29.20;36.02
72560;BME280;62987;52.382;9.752;2022-10-28T09:58:04;101115.31;;;31.25;31.95
72560;BME280;62987;52.382;9.752;2022-10-28T10:00:33;101136.34;;;32.21;30.55
72560;BME280;62987;52.382;9.752;2022-10-28T10:03:01;101127.34;;;32.54;29.25
72560;BME280;62987;52.382;9.752;2022-10-28T10:05:31;101122.38;;;30.22;33.51
72560;BME280;62987;52.382;9.752;2022-10-28T10:08:03;101121.97;;;30.55;32.99
72560;BME280;62987;52.382;9.752;2022-10-28T10:10:35;101118.56;;;30.53;33.50
72560;BME280;62987;52.382;9.752;2022-10-28T10:13:11;101106.03;;;31.70;30.11
72560;BME280;62987;52.382;9.752;2022-10-28T10:15:44;101116.34;;;30.26;32.88
72560;BME280;62987;52.382;9.752;2022-10-28T10:18:14;101117.31;;;29.71;33.66
72560;BME280;62987;52.382;9.752;2022-10-28T10:20:47;101110.56;;;31.04;32.06
72560;BME280;62987;52.382;9.752;2022-10-28T10:23:25;101103.06;;;32.65;29.02
72560;BME280;62987;52.382;9.752;2022-10-28T10:25:55;101094.97;;;33.40;26.94
72560;BME280;62987;52.382;9.752;2022-10-28T10:28:25;101095.13;;;33.32;27.37
72560;BME280;62987;52.382;9.752;2022-10-28T10:30:56;101084.94;;;35.13;24.37
72560;BME280;62987;52.382;9.752;2022-10-28T10:33:27;101093.22;;;34.21;26.04
72560;BME280;62987;52.382;9.752;2022-10-28T10:35:58;101084.34;;;35.24;24.14
72560;BME280;62987;52.382;9.752;2022-10-28T10:38:29;101092.44;;;36.84;22.14
72560;BME280;62987;52.382;9.752;2022-10-28T10:40:58;101089.66;;;34.60;24.89
72560;BME280;62987;52.382;9.752;2022-10-28T10:43:29;101097.09;;;34.60;25.08
72560;BME280;62987;52.382;9.752;2022-10-28T10:46:02;101097.97;;;34.93;24.77
72560;BME280;62987;52.382;9.752;2022-10-28T10:48:31;101095.19;;;34.67;24.90
72560;BME280;62987;52.382;9.752;2022-10-28T10:51:06;101098.81;;;34.61;25.26
72560;BME280;62987;52.382;9.752;2022-10-28T10:53:36;101103.63;;;33.03;27.70
72560;BME280;62987;52.382;9.752;2022-10-28T10:56:06;101088.88;;;32.04;28.54
72560;BME280;62987;52.382;9.752;2022-10-28T10:58:38;101093.31;;;32.41;28.56
72560;BME280;62987;52.382;9.752;2022-10-28T11:01:16;101093.19;;;32.28;28.70
72560;BME280;62987;52.382;9.752;2022-10-28T11:03:48;101091.28;;;31.92;29.30
72560;BME280;62987;52.382;9.752;2022-10-28T11:06:19;101087.22;;;31.00;30.56
72560;BME280;62987;52.382;9.752;2022-10-28T11:08:54;101083.47;;;29.87;32.95
72560;BME280;62987;52.382;9.752;2022-10-28T11:11:32;101080.38;;;29.82;33.25
72560;BME280;62987;52.382;9.752;2022-10-28T11:14:05;101080.84;;;32.24;28.99
72560;BME280;62987;52.382;9.752;2022-10-28T11:16:47;101068.50;;;33.52;27.24
72560;BME280;62987;52.382;9.752;2022-10-28T11:19:20;101074.63;;;33.13;28.16
72560;BME280;62987;52.382;9.752;2022-10-28T11:21:54;101062.97;;;31.18;30.65
72560;BME280;62987;52.382;9.752;2022-10-28T11:24:44;101072.22;;;29.27;34.29
72560;BME280;62987;52.382;9.752;2022-10-28T11:27:27;101065.16;;;28.77;35.70
72560;BME280;62987;52.382;9.752;2022-10-28T11:30:00;101073.38;;;28.37;36.54
72560;BME280;62987;52.382;9.752;2022-10-28T11:32:36;101077.31;;;28.83;35.66
72560;BME280;62987;52.382;9.752;2022-10-28T11:35:39;101069.41;;;28.88;35.90
72560;BME280;62987;52.382;9.752;2022-10-28T11:38:21;101068.75;;;29.49;34.50
72560;BME280;62987;52.382;9.752;2022-10-28T11:41:06;101070.50;;;29.26;35.43
72560;BME280;62987;52.382;9.752;2022-10-28T11:43:47;101070.34;;;29.27;35.29
72560;BME280;62987;52.382;9.752;2022-10-28T11:46:34;101029.00;;;28.01;36.82
72560;BME280;62987;52.382;9.752;2022-10-28T11:49:24;101058.31;;;28.25;37.12
72560;BME280;62987;52.382;9.752;2022-10-28T11:52:00;101070.97;;;28.17;37.24
72560;BME280;62987;52.382;9.752;2022-10-28T11:54:44;101066.91;;;27.37;38.14
72560;BME280;62987;52.382;9.752;2022-10-28T11:57:20;101068.66;;;27.97;37.33
72560;BME280;62987;52.382;9.752;2022-10-28T12:00:06;101061.91;;;28.25;36.99
72560;BME280;62987;52.382;9.752;2022-10-28T12:02:56;101063.81;;;27.32;38.83
72560;BME280;62987;52.382;9.752;2022-10-28T12:05:32;101061.13;;;27.40;38.83
72560;BME280;62987;52.382;9.752;2022-10-28T12:08:14;101049.66;;;27.79;38.36
72560;BME280;62987;52.382;9.752;2022-10-28T12:10:58;101026.41;;;27.67;38.31
72560;BME280;62987;52.382;9.752;2022-10-28T12:13:34;101035.63;;;27.82;37.82
72560;BME280;62987;52.382;9.752;2022-10-28T12:16:11;101046.28;;;28.09;37.40
72560;BME280;62987;52.382;9.752;2022-10-28T12:18:47;101031.97;;;28.23;38.06
72560;BME280;62987;52.382;9.752;2022-10-28T12:21:24;101038.81;;;28.52;37.24
72560;BME280;62987;52.382;9.752;2022-10-28T12:23:56;101038.13;;;28.58;36.99
72560;BME280;62987;52.382;9.752;2022-10-28T12:26:32;101039.63;;;28.52;37.23
72560;BME280;62987;52.382;9.752;2022-10-28T12:29:04;101046.81;;;28.05;37.89
72560;BME280;62987;52.382;9.752;2022-10-28T12:31:40;101034.72;;;27.57;39.22
72560;BME280;62987;52.382;9.752;2022-10-28T12:34:13;101036.09;;;27.19;40.02
72560;BME280;62987;52.382;9.752;2022-10-28T12:36:47;101053.38;;;26.94;40.09
72560;BME280;62987;52.382;9.752;2022-10-28T12:39:18;101052.38;;;27.03;39.71
72560;BME280;62987;52.382;9.752;2022-10-28T12:41:56;101036.69;;;27.05;39.37
72560;BME280;62987;52.382;9.752;2022-10-28T12:44:27;101038.88;;;27.27;39.24
72560;BME280;62987;52.382;9.752;2022-10-28T12:47:12;101044.06;;;27.47;39.49
72560;BME280;62987;52.382;9.752;2022-10-28T12:49:48;101038.06;;;27.35;39.17
72560;BME280;62987;52.382;9.752;2022-10-28T12:52:29;101030.47;;;27.55;38.82
72560;BME280;62987;52.382;9.752;2022-10-28T12:55:02;101034.50;;;27.51;39.43
72560;BME280;62987;52.382;9.752;2022-10-28T12:57:34;101033.41;;;27.27;39.39
72560;BME280;62987;52.382;9.752;2022-10-28T13:00:08;101030.31;;;27.22;39.82
72560;BME280;62987;52.382;9.752;2022-10-28T13:02:48;101033.16;;;27.13;40.30
72560;BME280;62987;52.382;9.752;2022-10-28T13:05:20;101022.44;;;27.19;40.54
72560;BME280;62987;52.382;9.752;2022-10-28T13:11:41;101026.91;;;26.69;41.25
72560;BME280;62987;52.382;9.752;2022-10-28T13:14:22;101029.28;;;26.63;41.67
72560;BME280;62987;52.382;9.752;2022-10-28T13:17:18;101024.19;;;26.25;42.02
72560;BME280;62987;52.382;9.752;2022-10-28T13:19:59;101017.16;;;26.40;42.13
72560;BME280;62987;52.382;9.752;2022-10-28T13:22:44;101011.75;;;26.13;43.36
72560;BME280;62987;52.382;9.752;2022-10-28T13:25:34;101017.63;;;26.18;42.96
72560;BME280;62987;52.382;9.752;2022-10-28T13:28:11;101013.03;;;26.18;43.29
72560;BME280;62987;52.382;9.752;2022-10-28T13:30:51;101009.66;;;26.07;43.28